sensor_id;sensor_type;location;lat;lon;timestamp;P1;durP1;ratioP1;P2;durP2;ratioP2
17812;SDS011;9030;50.792;8.320;2023-04-24T00:00:56;5.07;;;1.70;;
17812;SDS011;9030;50.792;8.320;2023-04-24T00:03:25;5.07;;;1.67;;
17812;SDS011;9030;50.792;8.320;2023-04-24T00:05:52;7.27;;;1.63;;
17812;SDS011;9030;50.792;8.320;2023-04-24T00:08:19;6.53;;;2.40;;
17812;SDS011;9030;50.792;8.320;2023-04-24T00:10:47;2.47;;;1.47;;
17812;SDS011;9030;50.792;8.320;2023-04-24T00:13:14;3.43;;;1.80;;
17812;SDS011;9030;50.792;8.320;2023-04-24T00:15:41;3.67;;;1.47;;
17812;SDS011;9030;50.792;8.320;2023-04-24T00:18:07;3.90;;;1.20;;
17812;SDS011;9030;50.792;8.320;2023-04-24T00:20:35;7.53;;;2.13;;
17812;SDS011;9030;50.792;8.320;2023-04-24T00:23:02;3.60;;;1.90;;
17812;SDS011;9030;50.792;8.320;2023-04-24T00:25:29;6.57;;;2.33;;
17812;SDS011;9030;50.792;8.320;2023-04-24T00:27:56;3.67;;;1.83;;
17812;SDS011;9030;50.792;8.320;2023-04-24T00:30:22;3.93;;;1.70;;
17812;SDS011;9030;50.792;8.320;2023-04-24T00:32:49;5.10;;;1.70;;
17812;SDS011;9030;50.792;8.320;2023-04-24T00:35:16;5.10;;;2.67;;
17812;SDS011;9030;50.792;8.320;2023-04-24T00:37:46;6.13;;;2.40;;
17812;SDS011;9030;50.792;8.320;2023-04-24T00:40:13;5.53;;;2.20;;
17812;SDS011;9030;50.792;8.320;2023-04-24T00:42:40;5.10;;;2.10;;
17812;SDS011;9030;50.792;8.320;2023-04-24T00:45:07;5.03;;;2.20;;
17812;SDS011;9030;50.792;8.320;2023-04-24T00:47:34;4.80;;;2.13;;
17812;SDS011;9030;50.792;8.320;2023-04-24T00:50:01;4.17;;;2.23;;
17812;SDS011;9030;50.792;8.320;2023-04-24T00:52:28;4.33;;;2.03;;
17812;SDS011;9030;50.792;8.320;2023-04-24T00:54:57;4.50;;;1.87;;
17812;SDS011;9030;50.792;8.320;2023-04-24T00:57:24;6.60;;;2.77;;
17812;SDS011;9030;50.792;8.320;2023-04-24T00:59:51;7.33;;;3.03;;
17812;SDS011;9030;50.792;8.320;2023-04-24T01:02:18;3.67;;;2.30;;
17812;SDS011;9030;50.792;8.320;2023-04-24T01:04:47;7.77;;;2.80;;
17812;SDS011;9030;50.792;8.320;2023-04-24T01:07:16;4.43;;;2.67;;
17812;SDS011;9030;50.792;8.320;2023-04-24T01:09:44;7.27;;;3.07;;
17812;SDS011;9030;50.792;8.320;2023-04-24T01:12:15;4.80;;;2.33;;
17812;SDS011;9030;50.792;8.320;2023-04-24T01:14:42;8.57;;;2.40;;
17812;SDS011;9030;50.792;8.320;2023-04-24T01:17:09;7.47;;;2.93;;
17812;SDS011;9030;50.792;8.320;2023-04-24T01:19:36;7.90;;;2.73;;
17812;SDS011;9030;50.792;8.320;2023-04-24T01:22:08;4.93;;;2.87;;
17812;SDS011;9030;50.792;8.320;2023-04-24T01:24:36;6.47;;;2.80;;
17812;SDS011;9030;50.792;8.320;2023-04-24T01:27:03;5.30;;;2.63;;
17812;SDS011;9030;50.792;8.320;2023-04-24T01:29:31;4.27;;;2.53;;
17812;SDS011;9030;50.792;8.320;2023-04-24T01:31:58;4.07;;;2.33;;
17812;SDS011;9030;50.792;8.320;2023-04-24T01:34:25;2.97;;;2.37;;
17812;SDS011;9030;50.792;8.320;2023-04-24T01:36:52;4.20;;;2.20;;
17812;SDS011;9030;50.792;8.320;2023-04-24T01:39:20;4.53;;;2.33;;
17812;SDS011;9030;50.792;8.320;2023-04-24T01:41:48;9.70;;;2.50;;
17812;SDS011;9030;50.792;8.320;2023-04-24T01:44:15;6.93;;;2.37;;
17812;SDS011;9030;50.792;8.320;2023-04-24T01:46:43;6.33;;;1.90;;
17812;SDS011;9030;50.792;8.320;2023-04-24T01:49:10;7.53;;;2.07;;
17812;SDS011;9030;50.792;8.320;2023-04-24T01:51:37;6.20;;;3.20;;
17812;SDS011;9030;50.792;8.320;2023-04-24T01:54:03;3.63;;;2.17;;
17812;SDS011;9030;50.792;8.320;2023-04-24T01:56:33;6.93;;;2.77;;
17812;SDS011;9030;50.792;8.320;2023-04-24T01:59:00;4.43;;;2.10;;
17812;SDS011;9030;50.792;8.320;2023-04-24T02:01:32;5.70;;;2.10;;
17812;SDS011;9030;50.792;8.320;2023-04-24T02:04:01;4.80;;;2.37;;
17812;SDS011;9030;50.792;8.320;2023-04-24T02:06:28;5.03;;;2.27;;
17812;SDS011;9030;50.792;8.320;2023-04-24T02:08:56;5.97;;;2.47;;
17812;SDS011;9030;50.792;8.320;2023-04-24T02:11:23;5.67;;;2.77;;
17812;SDS011;9030;50.792;8.320;2023-04-24T02:13:51;7.57;;;3.20;;
17812;SDS011;9030;50.792;8.320;2023-04-24T02:16:19;6.13;;;2.03;;
17812;SDS011;9030;50.792;8.320;2023-04-24T02:18:45;4.80;;;1.97;;
17812;SDS011;9030;50.792;8.320;2023-04-24T02:21:12;4.83;;;1.80;;
17812;SDS011;9030;50.792;8.320;2023-04-24T02:23:39;6.53;;;2.53;;
17812;SDS011;9030;50.792;8.320;2023-04-24T02:26:06;7.17;;;3.03;;
17812;SDS011;9030;50.792;8.320;2023-04-24T02:28:33;4.27;;;2.30;;
17812;SDS011;9030;50.792;8.320;2023-04-24T02:31:01;6.50;;;2.80;;
17812;SDS011;9030;50.792;8.320;2023-04-24T02:33:28;5.53;;;2.47;;
17812;SDS011;9030;50.792;8.320;2023-04-24T02:35:54;10.40;;;2.97;;
17812;SDS011;9030;50.792;8.320;2023-04-24T02:38:21;4.93;;;2.40;;
17812;SDS011;9030;50.792;8.320;2023-04-24T02:40:48;4.33;;;2.37;;
17812;SDS011;9030;50.792;8.320;2023-04-24T02:43:15;5.77;;;2.33;;
17812;SDS011;9030;50.792;8.320;2023-04-24T02:45:41;5.17;;;2.30;;
17812;SDS011;9030;50.792;8.320;2023-04-24T02:48:09;5.07;;;2.53;;
17812;SDS011;9030;50.792;8.320;2023-04-24T02:50:36;3.03;;;1.70;;
17812;SDS011;9030;50.792;8.320;2023-04-24T02:53:03;8.77;;;2.27;;
17812;SDS011;9030;50.792;8.320;2023-04-24T02:55:30;6.20;;;2.20;;
17812;SDS011;9030;50.792;8.320;2023-04-24T02:57:56;3.70;;;1.70;;
17812;SDS011;9030;50.792;8.320;2023-04-24T03:00:23;4.23;;;1.87;;
17812;SDS011;9030;50.792;8.320;2023-04-24T03:02:50;4.50;;;1.90;;
17812;SDS011;9030;50.792;8.320;2023-04-24T03:05:18;5.90;;;2.43;;
17812;SDS011;9030;50.792;8.320;2023-04-24T03:07:45;7.30;;;2.60;;
17812;SDS011;9030;50.792;8.320;2023-04-24T03:10:11;3.70;;;2.13;;
17812;SDS011;9030;50.792;8.320;2023-04-24T03:12:38;2.63;;;2.17;;
17812;SDS011;9030;50.792;8.320;2023-04-24T03:15:06;5.70;;;2.37;;
17812;SDS011;9030;50.792;8.320;2023-04-24T03:17:33;6.73;;;2.23;;
17812;SDS011;9030;50.792;8.320;2023-04-24T03:20:00;6.27;;;2.70;;
17812;SDS011;9030;50.792;8.320;2023-04-24T03:22:29;7.30;;;3.07;;
17812;SDS011;9030;50.792;8.320;2023-04-24T03:24:57;9.00;;;3.53;;
17812;SDS011;9030;50.792;8.320;2023-04-24T03:27:24;6.83;;;2.53;;
17812;SDS011;9030;50.792;8.320;2023-04-24T03:29:51;8.27;;;2.47;;
17812;SDS011;9030;50.792;8.320;2023-04-24T03:32:20;3.63;;;1.80;;
17812;SDS011;9030;50.792;8.320;2023-04-24T03:34:47;5.63;;;2.00;;
17812;SDS011;9030;50.792;8.320;2023-04-24T03:37:15;8.10;;;2.20;;
17812;SDS011;9030;50.792;8.320;2023-04-24T03:39:43;5.03;;;1.93;;
17812;SDS011;9030;50.792;8.320;2023-04-24T03:42:10;2.73;;;1.63;;
17812;SDS011;9030;50.792;8.320;2023-04-24T03:44:37;5.27;;;1.83;;
17812;SDS011;9030;50.792;8.320;2023-04-24T03:47:03;4.10;;;1.70;;
17812;SDS011;9030;50.792;8.320;2023-04-24T03:49:30;4.17;;;2.17;;
17812;SDS011;9030;50.792;8.320;2023-04-24T03:51:57;2.57;;;1.43;;
17812;SDS011;9030;50.792;8.320;2023-04-24T03:54:24;4.30;;;2.13;;
17812;SDS011;9030;50.792;8.320;2023-04-24T03:56:52;4.40;;;1.80;;
17812;SDS011;9030;50.792;8.320;2023-04-24T03:59:18;2.97;;;2.10;;
17812;SDS011;9030;50.792;8.320;2023-04-24T04:01:45;5.63;;;2.10;;
17812;SDS011;9030;50.792;8.320;2023-04-24T04:04:13;3.90;;;1.90;;
17812;SDS011;9030;50.792;8.320;2023-04-24T04:06:40;6.03;;;2.07;;
17812;SDS011;9030;50.792;8.320;2023-04-24T04:09:07;4.73;;;2.03;;
17812;SDS011;9030;50.792;8.320;2023-04-24T04:11:34;3.90;;;2.67;;
17812;SDS011;9030;50.792;8.320;2023-04-24T04:14:02;6.60;;;2.90;;
17812;SDS011;9030;50.792;8.320;2023-04-24T04:16:29;5.03;;;2.13;;
17812;SDS011;9030;50.792;8.320;2023-04-24T04:18:56;3.53;;;2.03;;
17812;SDS011;9030;50.792;8.320;2023-04-24T04:21:23;4.47;;;2.23;;
17812;SDS011;9030;50.792;8.320;2023-04-24T04:23:51;3.77;;;2.23;;
17812;SDS011;9030;50.792;8.320;2023-04-24T04:26:18;6.30;;;3.27;;
17812;SDS011;9030;50.792;8.320;2023-04-24T04:28:46;5.23;;;2.67;;
17812;SDS011;9030;50.792;8.320;2023-04-24T04:31:15;5.10;;;2.67;;
17812;SDS011;9030;50.792;8.320;2023-04-24T04:33:41;6.07;;;3.77;;
17812;SDS011;9030;50.792;8.320;2023-04-24T04:36:08;4.37;;;2.93;;
17812;SDS011;9030;50.792;8.320;2023-04-24T04:38:35;8.70;;;4.10;;
17812;SDS011;9030;50.792;8.320;2023-04-24T04:41:02;7.00;;;3.97;;
17812;SDS011;9030;50.792;8.320;2023-04-24T04:43:28;9.30;;;5.03;;
17812;SDS011;9030;50.792;8.320;2023-04-24T04:45:56;6.77;;;4.17;;
17812;SDS011;9030;50.792;8.320;2023-04-24T04:48:25;9.37;;;4.70;;
17812;SDS011;9030;50.792;8.320;2023-04-24T04:50:52;8.17;;;4.73;;
17812;SDS011;9030;50.792;8.320;2023-04-24T04:53:19;9.67;;;5.43;;
17812;SDS011;9030;50.792;8.320;2023-04-24T04:55:45;16.60;;;7.30;;
17812;SDS011;9030;50.792;8.320;2023-04-24T04:58:13;12.50;;;6.77;;
17812;SDS011;9030;50.792;8.320;2023-04-24T05:00:39;11.33;;;6.73;;
17812;SDS011;9030;50.792;8.320;2023-04-24T05:03:06;12.03;;;7.53;;
17812;SDS011;9030;50.792;8.320;2023-04-24T05:05:34;10.17;;;6.83;;
17812;SDS011;9030;50.792;8.320;2023-04-24T05:08:05;10.23;;;7.07;;
17812;SDS011;9030;50.792;8.320;2023-04-24T05:10:32;12.13;;;7.53;;
17812;SDS011;9030;50.792;8.320;2023-04-24T05:12:58;9.80;;;6.60;;
17812;SDS011;9030;50.792;8.320;2023-04-24T05:15:25;10.60;;;6.80;;
17812;SDS011;9030;50.792;8.320;2023-04-24T05:17:52;9.23;;;6.30;;
17812;SDS011;9030;50.792;8.320;2023-04-24T05:20:19;11.53;;;6.90;;
17812;SDS011;9030;50.792;8.320;2023-04-24T05:22:47;11.10;;;6.90;;
17812;SDS011;9030;50.792;8.320;2023-04-24T05:25:15;11.07;;;6.33;;
17812;SDS011;9030;50.792;8.320;2023-04-24T05:27:41;11.33;;;6.43;;
17812;SDS011;9030;50.792;8.320;2023-04-24T05:30:09;12.23;;;7.03;;
17812;SDS011;9030;50.792;8.320;2023-04-24T05:32:37;10.40;;;6.47;;
17812;SDS011;9030;50.792;8.320;2023-04-24T05:35:04;9.57;;;6.43;;
17812;SDS011;9030;50.792;8.320;2023-04-24T05:37:31;13.60;;;6.20;;
17812;SDS011;9030;50.792;8.320;2023-04-24T05:39:59;11.13;;;7.60;;
17812;SDS011;9030;50.792;8.320;2023-04-24T05:42:26;9.70;;;6.37;;
17812;SDS011;9030;50.792;8.320;2023-04-24T05:44:52;10.77;;;6.33;;
17812;SDS011;9030;50.792;8.320;2023-04-24T05:47:19;12.30;;;6.67;;
17812;SDS011;9030;50.792;8.320;2023-04-24T05:49:46;13.83;;;8.20;;
17812;SDS011;9030;50.792;8.320;2023-04-24T05:52:13;12.63;;;7.67;;
17812;SDS011;9030;50.792;8.320;2023-04-24T05:54:40;10.10;;;6.90;;
17812;SDS011;9030;50.792;8.320;2023-04-24T05:57:08;10.53;;;7.23;;
17812;SDS011;9030;50.792;8.320;2023-04-24T05:59:36;11.30;;;7.13;;
17812;SDS011;9030;50.792;8.320;2023-04-24T06:02:03;11.40;;;7.33;;
17812;SDS011;9030;50.792;8.320;2023-04-24T06:04:31;10.40;;;6.87;;
17812;SDS011;9030;50.792;8.320;2023-04-24T06:06:58;10.87;;;7.23;;
17812;SDS011;9030;50.792;8.320;2023-04-24T06:09:25;11.00;;;6.97;;
17812;SDS011;9030;50.792;8.320;2023-04-24T06:11:52;12.63;;;7.33;;
17812;SDS011;9030;50.792;8.320;2023-04-24T06:14:20;12.23;;;7.50;;
17812;SDS011;9030;50.792;8.320;2023-04-24T06:16:47;13.90;;;7.97;;
17812;SDS011;9030;50.792;8.320;2023-04-24T06:19:13;9.97;;;7.47;;
17812;SDS011;9030;50.792;8.320;2023-04-24T06:21:40;12.67;;;6.87;;
17812;SDS011;9030;50.792;8.320;2023-04-24T06:24:07;13.10;;;8.33;;
17812;SDS011;9030;50.792;8.320;2023-04-24T06:26:33;11.07;;;7.73;;
17812;SDS011;9030;50.792;8.320;2023-04-24T06:29:00;12.20;;;8.30;;
17812;SDS011;9030;50.792;8.320;2023-04-24T06:31:28;12.53;;;9.33;;
17812;SDS011;9030;50.792;8.320;2023-04-24T06:33:55;10.43;;;7.03;;
17812;SDS011;9030;50.792;8.320;2023-04-24T06:36:22;13.27;;;8.33;;
17812;SDS011;9030;50.792;8.320;2023-04-24T06:38:49;10.03;;;7.67;;
17812;SDS011;9030;50.792;8.320;2023-04-24T06:41:15;14.23;;;8.07;;
17812;SDS011;9030;50.792;8.320;2023-04-24T06:43:42;11.63;;;7.27;;
17812;SDS011;9030;50.792;8.320;2023-04-24T06:46:09;12.70;;;8.57;;
17812;SDS011;9030;50.792;8.320;2023-04-24T06:48:38;11.90;;;7.17;;
17812;SDS011;9030;50.792;8.320;2023-04-24T06:51:05;11.97;;;8.23;;
17812;SDS011;9030;50.792;8.320;2023-04-24T06:53:32;12.13;;;7.00;;
17812;SDS011;9030;50.792;8.320;2023-04-24T06:55:58;10.90;;;7.60;;
17812;SDS011;9030;50.792;8.320;2023-04-24T06:58:25;17.27;;;9.27;;
17812;SDS011;9030;50.792;8.320;2023-04-24T07:00:52;11.93;;;7.97;;
17812;SDS011;9030;50.792;8.320;2023-04-24T07:03:19;13.27;;;8.40;;
17812;SDS011;9030;50.792;8.320;2023-04-24T07:05:47;13.97;;;8.33;;
17812;SDS011;9030;50.792;8.320;2023-04-24T07:08:15;12.63;;;8.50;;
17812;SDS011;9030;50.792;8.320;2023-04-24T07:10:43;12.77;;;8.20;;
17812;SDS011;9030;50.792;8.320;2023-04-24T07:13:09;13.80;;;9.67;;
17812;SDS011;9030;50.792;8.320;2023-04-24T07:15:36;14.27;;;9.23;;
17812;SDS011;9030;50.792;8.320;2023-04-24T07:18:03;12.33;;;9.33;;
17812;SDS011;9030;50.792;8.320;2023-04-24T07:20:30;16.80;;;10.90;;
17812;SDS011;9030;50.792;8.320;2023-04-24T07:22:59;14.53;;;10.53;;
17812;SDS011;9030;50.792;8.320;2023-04-24T07:25:26;13.97;;;9.83;;
17812;SDS011;9030;50.792;8.320;2023-04-24T07:27:53;12.73;;;9.23;;
17812;SDS011;9030;50.792;8.320;2023-04-24T07:30:19;12.60;;;8.40;;
17812;SDS011;9030;50.792;8.320;2023-04-24T07:32:46;12.63;;;9.07;;
17812;SDS011;9030;50.792;8.320;2023-04-24T07:35:13;10.80;;;8.10;;
17812;SDS011;9030;50.792;8.320;2023-04-24T07:37:40;11.93;;;8.43;;
17812;SDS011;9030;50.792;8.320;2023-04-24T07:40:12;13.30;;;8.40;;
17812;SDS011;9030;50.792;8.320;2023-04-24T07:42:39;15.20;;;10.07;;
17812;SDS011;9030;50.792;8.320;2023-04-24T07:45:06;12.30;;;9.03;;
17812;SDS011;9030;50.792;8.320;2023-04-24T07:47:33;13.50;;;8.87;;
17812;SDS011;9030;50.792;8.320;2023-04-24T07:50:01;15.37;;;9.30;;
17812;SDS011;9030;50.792;8.320;2023-04-24T07:52:28;14.53;;;9.47;;
17812;SDS011;9030;50.792;8.320;2023-04-24T07:54:55;13.83;;;9.20;;
17812;SDS011;9030;50.792;8.320;2023-04-24T07:57:26;14.13;;;9.10;;
17812;SDS011;9030;50.792;8.320;2023-04-24T07:59:53;11.30;;;8.73;;
17812;SDS011;9030;50.792;8.320;2023-04-24T08:02:20;12.03;;;8.77;;
17812;SDS011;9030;50.792;8.320;2023-04-24T08:04:51;15.93;;;12.23;;
17812;SDS011;9030;50.792;8.320;2023-04-24T08:07:18;11.50;;;8.70;;
17812;SDS011;9030;50.792;8.320;2023-04-24T08:09:44;12.70;;;8.60;;
17812;SDS011;9030;50.792;8.320;2023-04-24T08:12:11;13.23;;;8.50;;
17812;SDS011;9030;50.792;8.320;2023-04-24T08:14:39;10.23;;;7.43;;
17812;SDS011;9030;50.792;8.320;2023-04-24T08:17:06;14.87;;;8.23;;
17812;SDS011;9030;50.792;8.320;2023-04-24T08:19:33;12.30;;;7.07;;
17812;SDS011;9030;50.792;8.320;2023-04-24T08:21:59;12.37;;;9.17;;
17812;SDS011;9030;50.792;8.320;2023-04-24T08:24:26;12.60;;;7.87;;
17812;SDS011;9030;50.792;8.320;2023-04-24T08:26:53;11.77;;;8.30;;
17812;SDS011;9030;50.792;8.320;2023-04-24T08:29:21;11.43;;;8.53;;
17812;SDS011;9030;50.792;8.320;2023-04-24T08:31:49;11.90;;;8.00;;
17812;SDS011;9030;50.792;8.320;2023-04-24T08:34:16;11.97;;;8.43;;
17812;SDS011;9030;50.792;8.320;2023-04-24T08:36:43;10.30;;;7.47;;
17812;SDS011;9030;50.792;8.320;2023-04-24T08:39:10;9.37;;;6.47;;
17812;SDS011;9030;50.792;8.320;2023-04-24T08:41:37;9.57;;;6.50;;
17812;SDS011;9030;50.792;8.320;2023-04-24T08:44:04;9.70;;;7.07;;
17812;SDS011;9030;50.792;8.320;2023-04-24T08:46:31;9.43;;;6.60;;
17812;SDS011;9030;50.792;8.320;2023-04-24T08:49:00;10.73;;;6.23;;
17812;SDS011;9030;50.792;8.320;2023-04-24T08:51:27;10.53;;;5.90;;
17812;SDS011;9030;50.792;8.320;2023-04-24T08:53:55;11.30;;;7.03;;
17812;SDS011;9030;50.792;8.320;2023-04-24T08:56:23;8.27;;;5.97;;
17812;SDS011;9030;50.792;8.320;2023-04-24T08:58:50;8.70;;;5.33;;
17812;SDS011;9030;50.792;8.320;2023-04-24T09:01:18;10.27;;;5.53;;
17812;SDS011;9030;50.792;8.320;2023-04-24T09:03:46;8.73;;;4.77;;
17812;SDS011;9030;50.792;8.320;2023-04-24T09:06:16;9.93;;;4.50;;
17812;SDS011;9030;50.792;8.320;2023-04-24T09:08:44;11.73;;;4.40;;
17812;SDS011;9030;50.792;8.320;2023-04-24T09:11:11;8.00;;;5.00;;
17812;SDS011;9030;50.792;8.320;2023-04-24T09:13:38;7.87;;;5.47;;
17812;SDS011;9030;50.792;8.320;2023-04-24T09:16:05;9.13;;;5.30;;
17812;SDS011;9030;50.792;8.320;2023-04-24T09:18:32;10.30;;;6.43;;
17812;SDS011;9030;50.792;8.320;2023-04-24T09:21:00;9.77;;;5.23;;
17812;SDS011;9030;50.792;8.320;2023-04-24T09:23:30;9.50;;;5.80;;
17812;SDS011;9030;50.792;8.320;2023-04-24T09:25:58;9.10;;;6.50;;
17812;SDS011;9030;50.792;8.320;2023-04-24T09:28:26;8.43;;;5.40;;
17812;SDS011;9030;50.792;8.320;2023-04-24T09:31:02;7.50;;;5.00;;
17812;SDS011;9030;50.792;8.320;2023-04-24T09:33:33;11.83;;;6.87;;
17812;SDS011;9030;50.792;8.320;2023-04-24T09:36:00;6.87;;;4.53;;
17812;SDS011;9030;50.792;8.320;2023-04-24T09:38:33;6.97;;;4.47;;
17812;SDS011;9030;50.792;8.320;2023-04-24T09:41:01;10.77;;;7.10;;
17812;SDS011;9030;50.792;8.320;2023-04-24T09:43:30;8.00;;;4.70;;
17812;SDS011;9030;50.792;8.320;2023-04-24T09:45:57;8.27;;;4.47;;
17812;SDS011;9030;50.792;8.320;2023-04-24T09:48:32;6.17;;;3.53;;
17812;SDS011;9030;50.792;8.320;2023-04-24T09:51:01;3.40;;;1.93;;
17812;SDS011;9030;50.792;8.320;2023-04-24T09:53:29;4.90;;;2.33;;
17812;SDS011;9030;50.792;8.320;2023-04-24T09:56:00;2.50;;;1.53;;
17812;SDS011;9030;50.792;8.320;2023-04-24T09:58:28;4.67;;;1.80;;
17812;SDS011;9030;50.792;8.320;2023-04-24T10:00:56;2.87;;;1.93;;
17812;SDS011;9030;50.792;8.320;2023-04-24T10:03:23;2.20;;;1.43;;
17812;SDS011;9030;50.792;8.320;2023-04-24T10:05:52;1.47;;;0.97;;
17812;SDS011;9030;50.792;8.320;2023-04-24T10:08:20;1.30;;;0.80;;
17812;SDS011;9030;50.792;8.320;2023-04-24T10:10:47;1.53;;;1.10;;
17812;SDS011;9030;50.792;8.320;2023-04-24T10:13:15;1.37;;;0.73;;
17812;SDS011;9030;50.792;8.320;2023-04-24T10:15:42;1.50;;;0.70;;
17812;SDS011;9030;50.792;8.320;2023-04-24T10:18:10;1.57;;;0.80;;
17812;SDS011;9030;50.792;8.320;2023-04-24T10:20:37;2.33;;;0.50;;
17812;SDS011;9030;50.792;8.320;2023-04-24T10:23:06;1.93;;;0.70;;
17812;SDS011;9030;50.792;8.320;2023-04-24T10:25:33;2.57;;;0.40;;
17812;SDS011;9030;50.792;8.320;2023-04-24T10:28:01;1.27;;;0.47;;
17812;SDS011;9030;50.792;8.320;2023-04-24T10:30:31;1.60;;;0.30;;
17812;SDS011;9030;50.792;8.320;2023-04-24T10:33:00;0.43;;;0.30;;
17812;SDS011;9030;50.792;8.320;2023-04-24T10:35:31;0.63;;;0.30;;
17812;SDS011;9030;50.792;8.320;2023-04-24T10:38:01;0.80;;;0.43;;
17812;SDS011;9030;50.792;8.320;2023-04-24T10:40:32;0.77;;;0.43;;
17812;SDS011;9030;50.792;8.320;2023-04-24T10:43:01;0.50;;;0.40;;
17812;SDS011;9030;50.792;8.320;2023-04-24T10:45:32;0.53;;;0.43;;
17812;SDS011;9030;50.792;8.320;2023-04-24T10:48:01;1.70;;;0.60;;
17812;SDS011;9030;50.792;8.320;2023-04-24T10:50:29;1.97;;;0.57;;
17812;SDS011;9030;50.792;8.320;2023-04-24T10:53:16;0.80;;;0.50;;
17812;SDS011;9030;50.792;8.320;2023-04-24T10:55:45;1.80;;;0.97;;
17812;SDS011;9030;50.792;8.320;2023-04-24T10:58:13;1.80;;;0.53;;
17812;SDS011;9030;50.792;8.320;2023-04-24T11:00:43;1.63;;;0.97;;
17812;SDS011;9030;50.792;8.320;2023-04-24T11:03:23;5.53;;;1.03;;
17812;SDS011;9030;50.792;8.320;2023-04-24T11:05:52;1.87;;;0.77;;
17812;SDS011;9030;50.792;8.320;2023-04-24T11:08:23;3.03;;;1.30;;
17812;SDS011;9030;50.792;8.320;2023-04-24T11:10:59;3.00;;;1.20;;
17812;SDS011;9030;50.792;8.320;2023-04-24T11:16:42;4.43;;;1.50;;
17812;SDS011;9030;50.792;8.320;2023-04-24T11:19:17;1.70;;;1.20;;
17812;SDS011;9030;50.792;8.320;2023-04-24T11:21:46;1.70;;;1.07;;
17812;SDS011;9030;50.792;8.320;2023-04-24T11:24:27;2.77;;;1.40;;
17812;SDS011;9030;50.792;8.320;2023-04-24T11:26:56;2.93;;;1.60;;
17812;SDS011;9030;50.792;8.320;2023-04-24T11:29:37;2.90;;;1.60;;
17812;SDS011;9030;50.792;8.320;2023-04-24T11:32:23;3.77;;;1.20;;
17812;SDS011;9030;50.792;8.320;2023-04-24T11:34:51;4.40;;;1.63;;
17812;SDS011;9030;50.792;8.320;2023-04-24T11:37:19;5.13;;;2.13;;
17812;SDS011;9030;50.792;8.320;2023-04-24T11:39:46;5.53;;;2.40;;
17812;SDS011;9030;50.792;8.320;2023-04-24T11:42:14;4.53;;;2.67;;
17812;SDS011;9030;50.792;8.320;2023-04-24T11:44:41;5.33;;;3.10;;
17812;SDS011;9030;50.792;8.320;2023-04-24T11:47:08;5.23;;;2.80;;
17812;SDS011;9030;50.792;8.320;2023-04-24T11:49:37;4.23;;;2.70;;
17812;SDS011;9030;50.792;8.320;2023-04-24T11:52:04;7.60;;;3.47;;
17812;SDS011;9030;50.792;8.320;2023-04-24T11:54:31;6.43;;;3.63;;
17812;SDS011;9030;50.792;8.320;2023-04-24T11:56:58;6.33;;;3.90;;
17812;SDS011;9030;50.792;8.320;2023-04-24T11:59:25;7.50;;;3.97;;
17812;SDS011;9030;50.792;8.320;2023-04-24T12:01:52;9.60;;;3.50;;
17812;SDS011;9030;50.792;8.320;2023-04-24T12:04:18;5.73;;;2.97;;
17812;SDS011;9030;50.792;8.320;2023-04-24T12:09:41;7.97;;;4.70;;
17812;SDS011;9030;50.792;8.320;2023-04-24T12:12:08;8.20;;;4.37;;
17812;SDS011;9030;50.792;8.320;2023-04-24T12:14:41;11.60;;;4.80;;
17812;SDS011;9030;50.792;8.320;2023-04-24T12:17:13;10.40;;;5.77;;
17812;SDS011;9030;50.792;8.320;2023-04-24T12:19:44;10.77;;;4.77;;
17812;SDS011;9030;50.792;8.320;2023-04-24T12:22:14;11.23;;;5.87;;
17812;SDS011;9030;50.792;8.320;2023-04-24T12:27:30;8.67;;;4.67;;
17812;SDS011;9030;50.792;8.320;2023-04-24T12:29:58;9.83;;;4.63;;
17812;SDS011;9030;50.792;8.320;2023-04-24T12:32:27;8.37;;;3.73;;
17812;SDS011;9030;50.792;8.320;2023-04-24T12:34:54;8.70;;;3.43;;
17812;SDS011;9030;50.792;8.320;2023-04-24T12:37:23;7.63;;;4.07;;
17812;SDS011;9030;50.792;8.320;2023-04-24T12:40:01;9.47;;;4.80;;
17812;SDS011;9030;50.792;8.320;2023-04-24T12:42:31;9.67;;;4.03;;
17812;SDS011;9030;50.792;8.320;2023-04-24T12:44:58;8.20;;;4.10;;
17812;SDS011;9030;50.792;8.320;2023-04-24T12:47:26;7.40;;;3.67;;
17812;SDS011;9030;50.792;8.320;2023-04-24T12:49:54;11.40;;;5.43;;
17812;SDS011;9030;50.792;8.320;2023-04-24T12:52:21;11.03;;;5.10;;
17812;SDS011;9030;50.792;8.320;2023-04-24T12:54:50;13.43;;;6.90;;
17812;SDS011;9030;50.792;8.320;2023-04-24T12:57:16;8.70;;;4.97;;
17812;SDS011;9030;50.792;8.320;2023-04-24T12:59:43;7.23;;;3.80;;
17812;SDS011;9030;50.792;8.320;2023-04-24T13:02:11;5.60;;;2.97;;
17812;SDS011;9030;50.792;8.320;2023-04-24T13:04:38;15.97;;;4.33;;
17812;SDS011;9030;50.792;8.320;2023-04-24T13:07:05;9.27;;;3.77;;
17812;SDS011;9030;50.792;8.320;2023-04-24T13:09:33;9.97;;;3.77;;
17812;SDS011;9030;50.792;8.320;2023-04-24T13:12:02;10.17;;;4.40;;
17812;SDS011;9030;50.792;8.320;2023-04-24T13:14:30;7.10;;;3.20;;
17812;SDS011;9030;50.792;8.320;2023-04-24T13:16:57;6.30;;;3.00;;
17812;SDS011;9030;50.792;8.320;2023-04-24T13:19:24;9.67;;;4.00;;
17812;SDS011;9030;50.792;8.320;2023-04-24T13:21:52;9.50;;;3.50;;
17812;SDS011;9030;50.792;8.320;2023-04-24T13:24:20;8.90;;;3.37;;
17812;SDS011;9030;50.792;8.320;2023-04-24T13:26:49;6.50;;;3.00;;
17812;SDS011;9030;50.792;8.320;2023-04-24T13:29:17;8.33;;;3.50;;
17812;SDS011;9030;50.792;8.320;2023-04-24T13:31:45;9.07;;;3.83;;
17812;SDS011;9030;50.792;8.320;2023-04-24T13:34:12;8.43;;;3.97;;
17812;SDS011;9030;50.792;8.320;2023-04-24T13:36:39;7.53;;;4.13;;
17812;SDS011;9030;50.792;8.320;2023-04-24T13:39:06;9.40;;;4.03;;
17812;SDS011;9030;50.792;8.320;2023-04-24T13:41:33;9.53;;;4.33;;
17812;SDS011;9030;50.792;8.320;2023-04-24T13:44:00;9.37;;;4.70;;
17812;SDS011;9030;50.792;8.320;2023-04-24T13:46:28;8.97;;;3.83;;
17812;SDS011;9030;50.792;8.320;2023-04-24T13:48:55;9.23;;;5.30;;
17812;SDS011;9030;50.792;8.320;2023-04-24T13:51:22;12.50;;;6.03;;
17812;SDS011;9030;50.792;8.320;2023-04-24T13:53:51;8.87;;;4.87;;
17812;SDS011;9030;50.792;8.320;2023-04-24T13:56:18;11.43;;;4.30;;
17812;SDS011;9030;50.792;8.320;2023-04-24T13:58:45;10.40;;;4.87;;
17812;SDS011;9030;50.792;8.320;2023-04-24T14:01:12;10.43;;;5.10;;
17812;SDS011;9030;50.792;8.320;2023-04-24T14:03:41;10.43;;;5.33;;
17812;SDS011;9030;50.792;8.320;2023-04-24T14:06:08;10.57;;;6.00;;
17812;SDS011;9030;50.792;8.320;2023-04-24T14:08:35;12.13;;;5.63;;
17812;SDS011;9030;50.792;8.320;2023-04-24T14:11:02;13.47;;;8.50;;
17812;SDS011;9030;50.792;8.320;2023-04-24T14:13:29;14.97;;;8.47;;
17812;SDS011;9030;50.792;8.320;2023-04-24T14:15:56;17.60;;;10.83;;
17812;SDS011;9030;50.792;8.320;2023-04-24T14:18:23;15.10;;;10.70;;
17812;SDS011;9030;50.792;8.320;2023-04-24T14:20:53;15.37;;;10.00;;
17812;SDS011;9030;50.792;8.320;2023-04-24T14:23:19;15.20;;;8.57;;
17812;SDS011;9030;50.792;8.320;2023-04-24T14:25:46;12.27;;;7.77;;
17812;SDS011;9030;50.792;8.320;2023-04-24T14:28:16;12.23;;;8.60;;
17812;SDS011;9030;50.792;8.320;2023-04-24T14:30:44;10.60;;;5.93;;
17812;SDS011;9030;50.792;8.320;2023-04-24T14:33:15;11.47;;;4.97;;
17812;SDS011;9030;50.792;8.320;2023-04-24T14:35:43;12.07;;;5.07;;
17812;SDS011;9030;50.792;8.320;2023-04-24T14:38:11;10.03;;;6.00;;
17812;SDS011;9030;50.792;8.320;2023-04-24T14:40:38;12.03;;;5.17;;
17812;SDS011;9030;50.792;8.320;2023-04-24T14:43:05;13.37;;;6.67;;
17812;SDS011;9030;50.792;8.320;2023-04-24T14:45:32;13.13;;;6.07;;
17812;SDS011;9030;50.792;8.320;2023-04-24T14:47:59;11.47;;;6.93;;
17812;SDS011;9030;50.792;8.320;2023-04-24T14:50:26;12.23;;;6.53;;
17812;SDS011;9030;50.792;8.320;2023-04-24T14:52:53;12.47;;;6.70;;
17812;SDS011;9030;50.792;8.320;2023-04-24T14:55:23;13.33;;;7.37;;
17812;SDS011;9030;50.792;8.320;2023-04-24T14:57:51;12.33;;;7.70;;
17812;SDS011;9030;50.792;8.320;2023-04-24T15:00:18;12.20;;;7.00;;
17812;SDS011;9030;50.792;8.320;2023-04-24T15:02:48;14.23;;;7.60;;
17812;SDS011;9030;50.792;8.320;2023-04-24T15:05:15;14.80;;;8.03;;
17812;SDS011;9030;50.792;8.320;2023-04-24T15:07:41;16.90;;;9.97;;